Time;durP1;ratioP1;P1;durP2;ratioP2;P2;SDS_P1;SDS_P2;PMS_P1;PMS_P2;Temp;Humidity;BMP_temperature;BMP_pressure;BME280_temperature;BME280_humidity;BME280_pressure;Samples;Min_cycle;Max_cycle;Signal;HPM_P1;HPM_P2
2022/06/30 00:00:19;;;;;;;7.85;3.20;;;;;;;;;;6277660;22;20022;-88
2022/06/30 00:02:54;;;;;;;5.00;3.25;;;;;;;;;;6275633;22;20027;-88
2022/06/30 00:05:21;;;;;;;3.35;2.88;;;;;;;;;;6278453;22;20091;-87
2022/06/30 00:08:09;;;;;;;3.70;2.72;;;;;;;;;;6220289;22;20023;-91
2022/06/30 00:10:35;;;;;;;5.07;3.13;;;;;;;;;;6225330;22;20090;-88
2022/06/30 00:13:06;;;;;;;5.82;2.90;;;;;;;;;;6222409;22;20063;-91
2022/06/30 00:15:32;;;;;;;5.07;2.90;;;;;;;;;;6224106;22;20012;-88
2022/06/30 00:28:26;;;;;;;3.30;2.97;;;;;;;;;;6248947;23;20038;-87
2022/06/30 00:31:02;;;;;;;6.05;3.20;;;;;;;;;;6251879;23;20034;-87
2022/06/30 00:33:31;;;;;;;4.05;3.55;;;;;;;;;;6195291;23;20103;-89
2022/06/30 00:35:58;;;;;;;5.70;3.15;;;;;;;;;;6173500;23;20020;-89
2022/06/30 00:38:37;;;;;;;4.15;3.13;;;;;;;;;;6198878;23;20028;-92
2022/06/30 00:45:12;;;;;;;4.90;3.00;;;;;;;;;;6186625;23;20031;-89
2022/06/30 00:50:55;;;;;;;4.57;3.10;;;;;;;;;;6187445;23;20059;-88
2022/06/30 01:07:28;;;;;;;7.85;3.90;;;;;;;;;;6246717;23;20016;-90
2022/06/30 01:14:08;;;;;;;7.43;4.07;;;;;;;;;;6246057;23;20088;-89
2022/06/30 01:20:29;;;;;;;4.45;3.42;;;;;;;;;;6220414;23;20034;-86
2022/06/30 01:22:58;;;;;;;;;;;;;;;;;;6195703;23;20020;-88
2022/06/30 01:25:40;;;;;;;;;;;;;;;;;;;;;
2022/06/30 01:48:37;;;;;;;7.97;4.50;;;;;;;;;;6309501;22;20360;-89
2022/06/30 01:51:28;;;;;;;6.95;3.47;;;;;;;;;;6252401;22;20023;-89
2022/06/30 01:54:08;;;;;;;5.88;3.03;;;;;;;;;;6282433;22;20026;-89
2022/06/30 01:56:37;;;;;;;3.88;3.03;;;;;;;;;;6309723;22;20083;-90
2022/06/30 01:59:16;;;;;;;6.30;3.50;;;;;;;;;;6255658;22;20031;-88
2022/06/30 02:24:04;;;;;;;7.10;4.10;;;;;;;;;;6280871;22;20497;-89
2022/06/30 02:30:11;;;;;;;16.10;5.55;;;;;;;;;;6252572;22;20143;-88
2022/06/30 02:36:31;;;;;;;7.05;4.85;;;;;;;;;;6251581;23;20064;-86
2022/06/30 02:42:23;;;;;;;5.22;4.70;;;;;;;;;;6249901;23;20754;-86
2022/06/30 02:48:08;;;;;;;6.22;4.63;;;;;;;;;;6250155;23;20031;-83
2022/06/30 02:50:34;;;;;;;5.25;4.47;;;;;;;;;;6221490;23;20071;-88
2022/06/30 02:56:50;;;;;;;7.10;4.03;;;;;;;;;;6223285;23;20017;-86
2022/06/30 02:59:23;;;;;;;7.28;4.10;;;;;;;;;;6222978;23;20647;-92
2022/06/30 03:02:18;;;;;;;9.50;4.22;;;;;;;;;;6201110;23;20397;-91
2022/06/30 03:15:14;;;;;;;10.70;3.83;;;;;;;;;;6252436;23;20012;-85
2022/06/30 03:17:57;;;;;;;5.15;3.58;;;20.20;99.90;;;;;;6208630;22;20015;31
2022/06/30 03:48:35;;;;;;;5.07;3.55;;;;;;;;;;6244285;23;20031;-85
2022/06/30 03:51:21;;;;;;;5.57;3.75;;;;;;;;;;6176016;23;20032;-88
2022/06/30 04:01:15;;;;;;;8.98;3.40;;;;;;;;;;6275902;22;20027;-85
2022/06/30 04:06:55;;;;;;;6.25;3.60;;;19.90;99.90;;;;;;6314322;22;20026;-85
2022/06/30 04:20:46;;;;;;;4.13;3.72;;;;;;;;;;6252118;23;20039;-82
2022/06/30 04:23:55;;;;;;;4.35;3.40;;;;;;;;;;6217843;23;20027;-87
2022/06/30 04:26:46;;;;;;;6.13;3.47;;;;;;;;;;6200065;23;20020;-87
2022/06/30 04:29:13;;;;;;;6.80;3.50;;;;;;;;;;6194635;23;20016;-89
2022/06/30 04:45:48;;;;;;;7.00;3.67;;;;;;;;;;6279053;22;20037;-86
2022/06/30 04:52:30;;;;;;;;;;;;;;;;;;;;;
2022/06/30 04:58:32;;;;;;;6.63;4.03;;;;;;;;;;6186658;23;20024;-91
2022/06/30 05:00:58;;;;;;;7.20;4.00;;;;;;;;;;6247225;22;20018;-87
2022/06/30 05:10:15;;;;;;;4.60;3.40;;;;;;;;;;6254427;22;20079;-89
2022/06/30 05:12:42;;;;;;;4.32;3.42;;;;;;;;;;6252798;22;20012;-86
2022/06/30 05:15:12;;;;;;;4.25;3.25;;;;;;;;;;6280263;22;20020;-88
2022/06/30 05:17:38;;;;;;;5.13;3.22;;;;;;;;;;6204396;22;20074;-89
2022/06/30 05:20:08;;;;;;;3.85;3.35;;;;;;;;;;6228352;22;20016;-89
2022/06/30 05:53:54;;;;;;;5.70;3.28;;;;;;;;;;6263483;22;20031;-91
2022/06/30 05:56:23;;;;;;;4.95;3.50;;;;;;;;;;6231540;22;20062;-88
2022/06/30 06:05:35;;;;;;;5.90;3.63;;;;;;;;;;6318368;22;20018;-88
2022/06/30 06:08:05;;;;;;;6.65;4.00;;;;;;;;;;6238305;22;20026;-91
2022/06/30 06:10:33;;;;;;;4.75;3.45;;;;;;;;;;6264573;22;20023;-89
2022/06/30 06:12:59;;;;;;;5.15;3.78;;;;;;;;;;6269689;22;20049;-91
2022/06/30 06:25:26;;;;;;;7.82;4.07;;;;;;;;;;6278897;22;20038;-86
2022/06/30 07:09:10;;;;;;;5.95;4.03;;;;;;;;;;6235169;22;20031;-89
2022/06/30 07:11:36;;;;;;;7.20;3.70;;;;;;;;;;6227457;23;20024;-91
2022/06/30 07:17:51;;;;;;;5.78;4.13;;;;;;;;;;6189981;23;20025;-93
2022/06/30 07:26:33;;;;;;;9.63;4.13;;;;;;;;;;6255056;22;20423;-88
2022/06/30 07:28:59;;;;;;;6.28;4.10;;;;;;;;;;6223943;23;20035;-89
2022/06/30 07:37:22;;;;;;;8.30;3.88;;;;;;;;;;6273508;22;20031;-90
2022/06/30 07:39:49;;;;;;;5.15;4.20;;;;;;;;;;6255216;22;20088;-89
2022/06/30 07:42:15;;;;;;;4.20;3.80;;;;;;;;;;6233521;22;20024;-88
2022/06/30 07:48:04;;;;;;;8.63;4.20;;;;;;;;;;6288285;22;20026;-91
2022/06/30 07:50:38;;;;;;;7.10;4.03;;;;;;;;;;6244522;22;20504;-93
2022/06/30 07:53:04;;;;;;;9.45;4.35;;;;;;;;;;6249932;22;20019;-87
2022/06/30 07:55:43;;;;;;;8.05;5.20;;;;;;;;;;6240524;22;20555;-89
2022/06/30 08:00:45;;;;;;;10.88;5.32;;;;;;;;;;6265877;22;20023;-90
2022/06/30 08:04:17;;;;;;;8.60;5.40;;;;;;;;;;6197557;23;20070;-88
2022/06/30 08:45:13;;;;;;;7.90;6.05;;;;;;;;;;6267599;22;20054;-84
2022/06/30 08:58:43;;;;;;;7.22;6.25;;;;;;;;;;6274347;22;20113;-82
2022/06/30 09:01:09;;;;;;;7.47;6.57;;;;;;;;;;6247283;22;20028;-85
2022/06/30 09:03:36;;;;;;;8.48;6.25;;;;;;;;;;6274775;22;20023;-85
2022/06/30 09:16:44;;;;;;;12.15;7.38;;;;;;;;;;6275508;22;20071;-85
2022/06/30 09:19:40;;;;;;;10.15;6.97;;;;;;;;;;6253411;22;20454;-82
2022/06/30 09:22:16;;;;;;;11.27;6.53;;;;;;;;;;6276610;22;20499;-84
2022/06/30 09:25:24;;;;;;;8.73;7.47;;;;;;;;;;6250250;22;20459;-83
2022/06/30 09:27:50;;;;;;;12.75;7.70;;;;;;;;;;6248923;22;20027;-83
2022/06/30 09:30:32;;;;;;;10.07;8.20;;;;;;;;;;6223756;22;20136;-84
2022/06/30 09:33:28;;;;;;;10.07;7.45;;;;;;;;;;6250842;22;20561;-84
2022/06/30 09:35:54;;;;;;;12.35;7.97;;;;;;;;;;6226929;22;20023;-85
2022/06/30 09:38:20;;;;;;;11.43;7.93;;;;;;;;;;6226843;22;20026;-86
2022/06/30 09:58:48;;;;;;;10.10;7.28;;;27.30;99.90;;;;;;6251967;23;20031;-87
2022/06/30 10:01:27;;;;;;;13.05;7.70;;;;;;;;;;6241569;22;20027;-84
2022/06/30 10:03:59;;;;;;;11.90;7.20;;;;;;;;;;6252964;22;20031;-84
2022/06/30 10:06:37;;;;;;;9.32;6.45;;;;;;;;;;6229884;22;20027;-88
2022/06/30 10:09:03;;;;;;;8.88;6.68;;;;;;;;;;6227543;22;20024;-85
2022/06/30 10:11:33;;;;;;;9.23;7.47;;;;;;;;;;6230766;22;20558;-87
2022/06/30 10:14:05;;;;;;;9.27;7.50;;;;;;;;;;6253725;22;20027;-87
2022/06/30 10:16:35;;;;;;;8.77;7.43;;;;;;;;;;6203191;22;20024;-82
2022/06/30 10:37:36;;;;;;;12.05;6.72;;;;;;;;;;6280801;22;20067;-84
2022/06/30 10:40:30;;;;;;;10.02;7.10;;;;;;;;;;6254628;22;20023;-85
2022/06/30 10:46:17;;;;;;;10.57;6.28;;;;;;;;;;6255202;22;19922;-87
2022/06/30 10:49:20;;;;;;;8.48;6.40;;;;;;;;;;6126624;23;20086;-85
2022/06/30 10:51:46;;;;;;;7.85;5.82;;;;;;;;;;6100148;23;20081;-87
2022/06/30 10:54:28;;;;;;;7.93;6.10;;;;;;;;;;6105253;23;20033;-88
2022/06/30 10:57:12;;;;;;;8.18;6.47;;;;;;;;;;6178816;22;20026;-85
2022/06/30 11:02:40;;;;;;;8.75;5.78;;;;;;;;;;6251228;22;20082;-86
2022/06/30 11:05:23;;;;;;;7.53;5.47;;;;;;;;;;6226208;22;20047;-86
2022/06/30 11:08:11;;;;;;;;;;;29.60;99.90;;;;;;6229001;22;20027;-83
2022/06/30 11:10:37;;;;;;;6.32;5.72;;;;;;;;;;6277513;22;19915;-87
2022/06/30 11:13:06;;;;;;;7.53;5.22;;;;;;;;;;6281226;22;20031;-87
2022/06/30 11:15:55;;;;;;;8.63;5.60;;;;;;;;;;6226517;22;20035;-81
2022/06/30 11:18:34;;;;;;;6.13;4.93;;;;;;;;;;6281021;22;20019;-83
2022/06/30 11:28:58;;;;;;;8.93;5.10;;;;;;;;;;6218077;23;20034;-90
2022/06/30 11:31:39;;;;;;;24.25;5.72;;;;;;;;;;6247966;23;20016;-84
2022/06/30 11:34:21;;;;;;;6.15;5.40;;;;;;;;;;6193184;23;20031;-84
2022/06/30 11:36:47;;;;;;;7.72;4.95;;;;;;;;;;6248958;23;20020;-88
2022/06/30 11:39:23;;;;;;;9.93;4.82;;;;;;;;;;6243246;23;20035;-84
2022/06/30 11:41:57;;;;;;;10.27;5.80;;;;;;;;;;6247780;23;20027;-88
2022/06/30 11:44:32;;;;;;;7.72;4.70;;;;;;;;;;6203398;22;20024;-88
2022/06/30 11:47:23;;;;;;;5.30;4.78;;;;;;;;;;6247262;22;20067;-84
2022/06/30 11:50:22;;;;;;;7.55;5.10;;;;;;;;;;6277702;22;20023;-85
2022/06/30 11:53:16;;;;;;;6.30;5.60;;;;;;;;;;6247921;22;20050;-85
2022/06/30 11:56:07;;;;;;;5.22;4.82;;;;;;;;;;6277497;22;20041;-85
2022/06/30 11:58:33;;;;;;;6.57;5.70;;;;;;;;;;6277536;22;20020;-88
2022/06/30 12:01:11;;;;;;;6.03;5.15;;;;;;;;;;6276133;22;20019;-87
2022/06/30 12:03:48;;;;;;;8.73;4.80;;;;;;;;;;6276221;22;20045;-86
2022/06/30 12:06:23;;;;;;;6.47;4.95;;;;;;;;;;6248528;22;20023;-86
2022/06/30 12:09:26;;;;;;;5.78;5.20;;;;;;;;;;6278856;22;20020;-84
2022/06/30 12:11:52;;;;;;;5.70;4.80;;;;;;;;;;6224220;22;20031;-84
2022/06/30 12:14:51;;;;;;;8.57;5.22;;;;;;;;;;6277725;22;20098;-84
2022/06/30 12:17:20;;;;;;;6.57;5.45;;;;;;;;;;6216385;22;20024;-86
2022/06/30 12:19:52;;;;;;;8.30;4.85;;;;;;;;;;6279645;22;20094;-83
2022/06/30 12:22:21;;;;;;;5.68;5.15;;;;;;;;;;6279940;22;20020;-86
2022/06/30 12:25:06;;;;;;;6.88;5.43;;;;;;;;;;6256617;22;20408;-84
2022/06/30 12:27:50;;;;;;;6.50;5.82;;;;;;;;;;6252510;22;20034;-86
2022/06/30 12:30:32;;;;;;;8.20;5.40;;;;;;;;;;6250086;22;20069;-84
2022/06/30 12:33:07;;;;;;;8.40;4.55;;;;;;;;;;6279478;22;20027;-83
2022/06/30 12:35:34;;;;;;;5.55;4.82;;;;;;;;;;6248205;22;20024;-87
2022/06/30 12:38:10;;;;;;;8.95;5.82;;;;;;;;;;6228626;22;20038;-87
2022/06/30 12:40:38;;;;;;;12.63;5.40;;;;;;;;;;6278322;22;20046;-85
2022/06/30 12:43:20;;;;;;;8.48;5.28;;;;;;;;;;6272533;22;20030;-81
2022/06/30 12:46:11;;;;;;;14.02;10.00;;;28.00;99.90;;;;;;6244468;22;20031;-84
2022/06/30 12:48:50;;;;;;;13.27;10.40;;;;;;;;;;6244032;22;20020;-81
2022/06/30 12:51:39;;;;;;;11.90;10.02;;;;;;;;;;6272889;22;20023;-82
2022/06/30 12:54:26;;;;;;;10.50;9.50;;;;;;;;;;6242245;22;20015;-81
2022/06/30 12:57:01;;;;;;;9.15;7.90;;;;;;;;;;6219014;22;20024;-82
2022/06/30 13:00:06;;;;;;;7.78;7.07;;;;;;;;;;6269704;22;20023;-82
2022/06/30 13:02:39;;;;;;;8.93;6.43;;;;;;;;;;6247472;22;20026;-85
2022/06/30 13:05:05;;;;;;;6.25;5.65;;;;;;;;;;6246245;22;20075;-82
2022/06/30 13:07:31;;;;;;;8.18;6.13;;;;;;;;;;6222352;22;20023;-82
2022/06/30 13:09:57;;;;;;;6.22;5.70;;;;;;;;;;6247475;22;20526;-83
2022/06/30 13:12:24;;;;;;;5.55;5.05;;;;;;;;;;6221448;22;20023;-84
2022/06/30 13:14:50;;;;;;;5.82;5.10;;;;;;;;;;6224866;22;20031;-86
2022/06/30 13:17:17;;;;;;;4.93;4.53;;;;;;;;;;6250824;22;20046;-87
2022/06/30 13:19:45;;;;;;;5.03;4.53;;;;;;;;;;6278221;22;20081;-84
2022/06/30 13:22:12;;;;;;;7.72;4.45;;;;;;;;;;6275068;22;20336;-84
2022/06/30 13:24:38;;;;;;;12.98;7.13;;;;;;;;;;6276438;22;20062;-84
2022/06/30 13:27:12;;;;;;;9.18;7.60;;;;;;;;;;6247429;22;20025;-83
2022/06/30 13:29:39;;;;;;;10.30;6.55;;;;;;;;;;6223969;22;20020;-82
2022/06/30 13:32:05;;;;;;;9.27;5.85;;;;;;;;;;6247873;22;20054;-84
2022/06/30 13:34:32;;;;;;;8.75;4.65;;;;;;;;;;6277598;22;20015;-82
2022/06/30 13:36:58;;;;;;;4.97;4.20;;;;;;;;;;6274321;22;20023;-82
2022/06/30 13:39:24;;;;;;;8.88;4.10;;;;;;;;;;6273913;22;20016;-85
2022/06/30 13:41:50;;;;;;;6.57;4.40;;;;;;;;;;6277898;22;20027;-84
2022/06/30 13:44:17;;;;;;;5.30;4.00;;;;;;;;;;6250064;22;20065;-82
2022/06/30 13:46:43;;;;;;;8.32;4.30;;;;;;;;;;6227134;22;20020;-83
2022/06/30 13:49:19;;;;;;;4.97;4.30;;;;;;;;;;6246057;23;20028;-88
2022/06/30 13:51:45;;;;;;;6.90;4.55;;;;;;;;;;6219337;23;20020;-85
2022/06/30 13:54:12;;;;;;;6.13;4.35;;;;;;;;;;6246089;23;20078;-86
2022/06/30 14:00:07;;;;;;;6.50;4.55;;;;;;;;;;6246701;23;20524;-85
2022/06/30 14:02:33;;;;;;;5.00;4.22;;;;;;;;;;6245991;23;20200;-83
2022/06/30 14:04:59;;;;;;;6.03;3.80;;;;;;;;;;6192476;23;20043;-82
2022/06/30 14:07:38;;;;;;;4.60;3.80;;;;;;;;;;6221654;23;20020;-86
2022/06/30 14:10:13;;;;;;;3.60;3.30;;;;;;;;;;6247514;23;20070;-86
2022/06/30 14:12:43;;;;;;;4.68;3.40;;;;;;;;;;6184848;23;20033;-85
2022/06/30 14:15:41;;;;;;;3.80;3.50;;;;;;;;;;6182818;23;20021;-85
2022/06/30 14:18:26;;;;;;;3.40;3.10;;;;;;;;;;6038486;23;20033;-82
2022/06/30 14:21:08;;;;;;;3.30;3.00;;;;;;;;;;6040944;23;20034;-86
2022/06/30 14:23:40;;;;;;;3.80;3.40;;;;;;;;;;6041777;23;20310;-86
2022/06/30 14:26:22;;;;;;;4.28;3.88;;;;;;;;;;6067119;23;20599;-84
2022/06/30 14:28:48;;;;;;;5.28;3.72;;;;;;;;;;6039564;23;21199;-84
2022/06/30 14:31:15;;;;;;;5.05;3.55;;;;;;;;;;6043645;23;20075;-82
2022/06/30 14:33:47;;;;;;;4.35;3.60;;;;;;;;;;6039225;23;20120;-83
2022/06/30 14:39:17;;;;;;;3.80;3.30;;;;;;;;;;6064011;23;20029;-82
2022/06/30 14:44:32;;;;;;;4.03;3.35;;;;;;;;;;6215801;23;20028;-82
2022/06/30 14:54:01;;;;;;;5.25;4.32;;;;;;;;;;6167312;23;20032;-82
2022/06/30 14:56:28;;;;;;;7.13;4.93;;;;;;;;;;6128325;23;20026;-82
2022/06/30 14:58:54;;;;;;;9.57;6.45;;;;;;;;;;6158888;23;20029;-84
2022/06/30 15:01:55;;;;;;;6.53;4.60;;;;;;;;;;6128513;23;20022;-83
2022/06/30 15:04:22;;;;;;;9.20;6.53;;;;;;;;;;6087971;23;20029;-82
2022/06/30 15:06:48;;;;;;;5.85;5.25;;;;;;;;;;6155812;23;20069;-83
2022/06/30 15:09:14;;;;;;;11.95;6.65;;;;;;;;;;6132510;23;20021;-87
2022/06/30 15:11:40;;;;;;;6.97;4.63;;;;;;;;;;6131690;23;20074;-87
2022/06/30 15:14:28;;;;;;;6.70;4.70;;;;;;;;;;6134247;23;20017;-86
2022/06/30 15:29:19;;;;;;;6.82;4.57;;;;;;;;;;6280806;22;20042;-83
2022/06/30 15:37:41;;;;;;;8.35;5.65;;;;;;;;;;6277839;22;20037;-85
2022/06/30 15:50:22;;;;;;;13.67;6.37;;;;;;;;;;6165800;23;20378;-89
2022/06/30 15:52:48;;;;;;;12.00;6.18;;;;;;;;;;6195828;23;20096;-88
2022/06/30 15:55:34;;;;;;;13.10;5.70;;;;;;;;;;6187701;22;20089;-89
2022/06/30 16:01:48;;;;;;;11.45;4.32;;;;;;;;;;6253554;22;20110;-90
2022/06/30 16:04:42;;;;;;;10.57;4.47;;;;;;;;;;6279390;22;20046;-88
2022/06/30 16:07:11;;;;;;;13.32;5.15;;;;;;;;;;6254008;22;20019;-88
2022/06/30 16:09:38;;;;;;;14.15;4.70;;;;;;;;;;6228874;22;20045;-88
2022/06/30 16:12:04;;;;;;;15.63;4.28;;;;;;;;;;6229607;22;20015;-88
2022/06/30 16:17:19;;;;;;;13.65;4.13;;;;;;;;;;6279424;22;20027;-87
2022/06/30 16:19:45;;;;;;;13.20;3.53;;;;;;;;;;6224822;22;20051;-89
2022/06/30 16:22:17;;;;;;;10.50;4.10;;;;;;;;;;6230432;22;20039;-88
2022/06/30 16:24:43;;;;;;;12.60;3.33;;;;;;;;;;6202375;22;20034;-89
2022/06/30 16:27:12;;;;;;;10.63;4.05;;;;;;;;;;6229369;22;20020;-89
2022/06/30 16:29:46;;;;;;;8.75;3.45;;;;;;;;;;6205235;22;20026;-90
2022/06/30 16:32:49;;;;;;;8.75;3.63;;;;;;;;;;6212139;23;20035;-87
2022/06/30 16:51:13;;;;;;;;;;;;;;;;;;;;;
2022/06/30 16:53:59;;;;;;;7.07;2.92;;;;;;;;;;6216471;23;20015;-86
2022/06/30 16:56:27;;;;;;;5.10;3.50;;;;;;;;;;6167646;23;20648;-86
2022/06/30 17:06:53;;;;;;;5.82;3.45;;;32.50;99.90;;;;;;6280543;22;20022;-85
2022/06/30 17:09:47;;;;;;;5.03;3.20;;;;;;;;;;6278325;22;20135;-85
2022/06/30 17:12:14;;;;;;;5.70;3.20;;;;;;;;;;6291216;22;20070;-87
2022/06/30 17:14:40;;;;;;;7.07;3.30;;;;;;;;;;6259427;22;20046;-82
2022/06/30 17:17:07;;;;;;;5.72;3.28;;;;;;;;;;6312444;22;20089;-83
2022/06/30 17:19:33;;;;;;;5.43;3.45;;;;;;;;;;6312779;22;20015;-85
2022/06/30 17:21:59;;;;;;;7.28;3.08;;;;;;;;;;6341538;22;20094;-81
2022/06/30 17:24:25;;;;;;;4.45;2.90;;;;;;;;;;6312133;22;20084;-78
2022/06/30 17:26:55;;;;;;;7.85;3.28;;;;;;;;;;6334641;22;20022;-80
2022/06/30 17:29:21;;;;;;;3.90;2.95;;;;;;;;;;6336686;22;20355;-79
2022/06/30 17:31:47;;;;;;;7.38;3.28;;;;;;;;;;6331880;22;20015;-80
2022/06/30 17:34:14;;;;;;;11.40;4.63;;;;;;;;;;6305602;22;20042;-79
2022/06/30 17:36:40;;;;;;;9.57;5.63;;;;;;;;;;6331275;22;20406;-79
2022/06/30 17:39:06;;;;;;;9.75;6.15;;;;;;;;;;6333634;22;20045;-80
2022/06/30 17:41:32;;;;;;;10.48;5.30;;;;;;;;;;6335193;22;20177;-78
2022/06/30 17:44:01;;;;;;;8.80;5.25;;;;;;;;;;6307317;22;20045;-79
2022/06/30 17:46:28;;;;;;;7.90;5.07;;;;;;;;;;6334710;22;20011;-79
2022/06/30 17:48:54;;;;;;;5.97;4.50;;;;;;;;;;6334256;22;20455;-82
2022/06/30 17:51:21;;;;;;;8.10;4.13;;;;;;;;;;6335123;22;20023;-81
2022/06/30 17:53:48;;;;;;;8.68;4.20;;;;;;;;;;6333960;22;20588;-82
2022/06/30 17:56:15;;;;;;;9.52;3.88;;;;;;;;;;6308623;22;20019;-81
2022/06/30 17:58:41;;;;;;;12.27;4.90;;;;;;;;;;6337686;22;20010;-83
2022/06/30 18:01:07;;;;;;;7.78;4.30;;;;;;;;;;6336295;22;20105;-81
2022/06/30 18:03:33;;;;;;;8.73;4.38;;;;;;;;;;6305279;22;20025;-80
2022/06/30 18:05:59;;;;;;;7.10;4.55;;;;;;;;;;6310647;22;20019;-79
2022/06/30 18:11:28;;;;;;;7.13;4.10;;;;;;;;;;6329404;22;20066;-83
2022/06/30 18:14:08;;;;;;;5.28;3.95;;;;;;;;;;6331557;22;20026;-80
2022/06/30 18:16:34;;;;;;;10.27;3.97;;;;;;;;;;6328696;22;20015;-80
2022/06/30 18:19:00;;;;;;;5.40;3.67;;;;;;;;;;6307077;22;20050;-82
2022/06/30 18:21:26;;;;;;;6.10;3.70;;;;;;;;;;6330671;22;20010;-83
2022/06/30 18:23:52;;;;;;;7.47;3.80;;;;;;;;;;6280302;22;20389;-88
2022/06/30 18:26:19;;;;;;;4.95;3.53;;;;;;;;;;6338123;22;20014;-84
2022/06/30 18:28:45;;;;;;;7.97;3.78;;;;;;;;;;6313328;22;20076;-82
2022/06/30 18:31:15;;;;;;;6.38;3.53;;;;;;;;;;6337994;22;20518;-83
2022/06/30 18:33:54;;;;;;;8.20;4.00;;;;;;;;;;6338476;22;20019;-88
2022/06/30 18:36:54;;;;;;;8.10;4.15;;;;;;;;;;6188027;23;20095;-86
2022/06/30 18:39:32;;;;;;;6.10;3.92;;;;;;;;;;6186429;23;20021;-84
2022/06/30 18:42:10;;;;;;;4.47;3.25;;;;;;;;;;6112679;23;20028;-84
2022/06/30 18:44:39;;;;;;;4.45;3.55;;;;;;;;;;6161484;23;20027;-82
2022/06/30 18:47:11;;;;;;;5.45;3.95;;;;;;;;;;6159871;23;20029;-84
2022/06/30 18:49:46;;;;;;;9.80;3.87;;;;;;;;;;6253735;22;20055;-84
2022/06/30 18:52:12;;;;;;;7.90;4.03;;;;;;;;;;6251974;22;20085;-84
2022/06/30 18:54:38;;;;;;;7.00;4.30;;;;;;;;;;6225517;22;20075;-83
2022/06/30 18:57:07;;;;;;;8.65;3.85;;;;;;;;;;6248647;22;20506;-83
2022/06/30 18:59:34;;;;;;;11.75;4.18;;;;;;;;;;6253282;22;20022;-85
2022/06/30 19:02:18;;;;;;;6.35;4.20;;;25.80;99.90;;;;;;6248436;22;20352;-87
2022/06/30 19:04:44;;;;;;;6.78;4.22;;;;;;;;;;6220397;23;20162;-85
2022/06/30 19:07:17;;;;;;;5.82;5.10;;;;;;;;;;6220935;22;20019;-84
2022/06/30 19:10:15;;;;;;;6.35;4.28;;;;;;;;;;6282668;22;20059;-83
2022/06/30 19:12:41;;;;;;;5.15;4.25;;;;;;;;;;6309331;22;20500;-87
2022/06/30 19:18:30;;;;;;;12.43;4.25;;;;;;;;;;6310939;22;20067;-84
2022/06/30 19:21:18;;;;;;;9.00;6.38;;;;;;;;;;6310157;22;20050;-87
2022/06/30 19:24:04;;;;;;;17.17;10.82;;;;;;;;;;6312447;22;20019;-86
2022/06/30 19:26:31;;;;;;;12.63;11.48;;;;;;;;;;6283856;22;20019;-82
2022/06/30 19:29:00;;;;;;;16.83;13.30;;;;;;;;;;6309264;22;20015;-84
2022/06/30 19:31:26;;;;;;;17.73;12.82;;;;;;;;;;6285673;22;20053;-84
2022/06/30 19:34:04;;;;;;;21.55;14.63;;;;;;;;;;6285285;22;20015;-83
2022/06/30 19:36:43;;;;;;;27.13;17.75;;;;;;;;;;6314069;22;20019;-87
2022/06/30 19:39:15;;;;;;;23.60;20.10;;;;;;;;;;6311279;22;20070;-89
2022/06/30 19:41:42;;;;;;;26.45;21.08;;;;;;;;;;6315193;22;20089;-84
2022/06/30 19:44:08;;;;;;;26.23;21.98;;;;;;;;;;6280766;22;20466;-89
2022/06/30 19:46:34;;;;;;;26.65;22.63;;;;;;;;;;6310316;22;20172;-83
2022/06/30 19:49:01;;;;;;;24.88;22.02;;;;;;;;;;6309432;22;20051;-86
2022/06/30 19:51:38;;;;;;;24.13;21.02;;;;;;;;;;6309559;22;20046;-82
2022/06/30 19:54:05;;;;;;;25.10;19.55;;;;;;;;;;6305515;22;20071;-82
2022/06/30 19:56:55;;;;;;;28.90;20.52;;;;;;;;;;6283911;22;20023;-84
2022/06/30 19:59:24;;;;;;;26.05;19.60;;;;;;;;;;6281857;22;20110;-83
2022/06/30 20:01:50;;;;;;;24.17;19.88;;;;;;;;;;6284226;22;20015;-85
2022/06/30 20:11:26;;;;;;;29.02;17.88;;;;;;;;;;6284369;22;20038;-84
2022/06/30 20:12:38;;;;;;;21.98;17.40;;;;;;;;;;6277178;22;20485;-87
2022/06/30 20:15:04;;;;;;;21.75;17.00;;;;;;;;;;6254548;22;20089;-84
2022/06/30 20:17:33;;;;;;;23.48;16.65;;;;;;;;;;6309231;22;20027;-85
2022/06/30 20:20:00;;;;;;;19.30;16.17;;;;;;;;;;6283126;22;20015;-84
2022/06/30 20:22:27;;;;;;;22.33;16.90;;;;;;;;;;6304636;22;20015;-84
2022/06/30 20:24:55;;;;;;;23.95;17.58;;;;;;;;;;6308899;22;20550;-89
2022/06/30 20:27:21;;;;;;;28.02;17.08;;;;;;;;;;6305232;22;20375;-83
2022/06/30 20:29:52;;;;;;;23.15;18.27;;;;;;;;;;6309285;22;20031;-83
2022/06/30 20:32:19;;;;;;;24.27;18.02;;;;;;;;;;6306962;22;20015;-84
2022/06/30 20:34:54;;;;;;;26.20;19.23;;;;;;;;;;6310645;22;20055;-88
2022/06/30 20:37:29;;;;;;;25.75;18.73;;;;;;;;;;6282246;22;20023;-88
2022/06/30 20:39:56;;;;;;;24.08;18.10;;;;;;;;;;6310107;22;20015;-86
2022/06/30 20:42:22;;;;;;;24.05;17.00;;;;;;;;;;6310038;22;20047;-89
2022/06/30 20:44:48;;;;;;;22.92;16.30;;;;;;;;;;6258877;22;20019;-84
2022/06/30 20:47:21;;;;;;;20.10;15.38;;;;;;;;;;6310338;22;20019;-86
2022/06/30 21:41:48;;;;;;;28.58;6.85;;;;;;;;;;6275496;22;20034;-86
2022/06/30 21:54:33;;;;;;;21.25;4.78;;;;;;;;;;6278685;22;20020;-86
2022/06/30 21:56:59;;;;;;;15.30;4.75;;;;;;;;;;6248710;22;20572;-87
2022/06/30 21:59:38;;;;;;;25.85;5.15;;;;;;;;;;6200338;22;20029;-85
2022/06/30 22:11:59;;;;;;;29.92;5.72;;;;;;;;;;6260092;22;20019;-84
2022/06/30 22:43:07;;;;;;;52.03;6.90;;;16.50;99.90;;;;;;6237074;22;20031;-85
2022/06/30 23:25:29;;;;;;;26.83;4.22;;;;;;;;;;6264375;22;20034;-84
2022/06/30 23:41:19;;;;;;;20.35;2.42;;;;;;;;;;6280072;22;20075;-85
2022/06/30 23:43:46;;;;;;;18.50;2.53;;;;;;;;;;6226570;22;20031;-85
2022/06/30 23:46:55;;;;;;;16.75;2.45;;;;;;;;;;6229749;22;20031;-85
2022/06/30 23:52:40;;;;;;;16.58;2.53;;;;;;;;;;6251802;22;20023;-83
2022/06/30 23:55:07;;;;;;;10.77;2.25;;;;;;;;;;6211654;23;20098;-84
2022/06/30 23:57:33;;;;;;;14.65;1.65;;;;;;;;;;6212977;23;20602;-84
